Time;durP1;ratioP1;P1;durP2;ratioP2;P2;SDS_P1;SDS_P2;PMS_P1;PMS_P2;Temp;Humidity;BMP_temperature;BMP_pressure;BME280_temperature;BME280_humidity;BME280_pressure;Samples;Min_cycle;Max_cycle;Signal;HPM_P1;HPM_P2
2023/03/01 00:02:22;;;;;;;3.73;3.43;;;;;;;8.67;62.30;95399.06;4982594;28;20227;-63
2023/03/01 00:04:48;;;;;;;4.03;3.73;;;;;;;8.71;62.13;95395.22;4970241;28;20204;-68
2023/03/01 00:07:13;;;;;;;4.03;3.67;;;;;;;8.72;62.11;95391.66;4969569;28;20287;-69
2023/03/01 00:09:39;;;;;;;4.23;3.80;;;;;;;8.74;62.09;95389.75;4962864;28;20227;-68
2023/03/01 00:12:05;;;;;;;3.90;3.60;;;;;;;8.67;62.15;95393.84;4969430;28;20233;-69
2023/03/01 00:14:31;;;;;;;4.00;3.60;;;;;;;8.54;62.41;95383.56;4967575;28;20263;-66
2023/03/01 00:16:56;;;;;;;3.90;3.60;;;;;;;8.74;62.14;95381.88;4966948;28;20196;-66
2023/03/01 00:19:21;;;;;;;4.03;3.73;;;;;;;8.87;61.61;95380.81;4990358;28;20223;-66
2023/03/01 00:21:47;;;;;;;3.50;3.20;;;;;;;8.75;61.78;95366.97;4986583;28;20250;-66
2023/03/01 00:24:13;;;;;;;3.70;3.40;;;;;;;8.48;62.54;95373.59;4988999;28;20269;-65
2023/03/01 00:26:39;;;;;;;3.17;2.97;;;;;;;8.67;62.27;95370.25;4986695;28;20297;-66
2023/03/01 00:29:04;;;;;;;2.90;2.70;;;;;;;8.62;61.67;95359.31;4985833;28;20267;-66
2023/03/01 00:31:31;;;;;;;3.00;2.80;;;;;;;8.61;62.00;95352.44;4990157;28;20191;-66
2023/03/01 00:34:00;;;;;;;3.40;3.20;;;;;;;8.74;61.59;95360.91;4987662;28;20349;-66
2023/03/01 00:36:29;;;;;;;3.10;2.80;;;;;;;8.57;62.32;95351.00;4988203;28;20282;-64
2023/03/01 00:38:55;;;;;;;3.33;3.03;;;;;;;8.69;61.96;95351.78;4989499;28;20231;-64
2023/03/01 00:41:26;;;;;;;3.37;3.10;;;;;;;8.51;62.29;95338.44;4988588;28;20239;-64
2023/03/01 00:43:52;;;;;;;2.87;2.67;;;;;;;8.57;62.13;95341.34;4983955;28;20198;-63
2023/03/01 00:46:21;;;;;;;3.47;2.80;;;;;;;8.38;62.60;95349.94;4986938;28;20219;-67
2023/03/01 00:48:47;;;;;;;3.57;2.90;;;;;;;8.42;62.29;95349.69;4982798;28;20286;-67
2023/03/01 00:51:14;;;;;;;2.77;2.50;;;;;;;8.43;62.13;95340.88;4986802;28;20239;-68
2023/03/01 00:53:40;;;;;;;3.30;3.10;;;;;;;8.48;62.21;95351.81;4980644;28;20215;-68
2023/03/01 00:56:08;;;;;;;2.60;2.40;;;;;;;8.45;62.42;95350.28;4985966;28;20191;-69
2023/03/01 00:58:34;;;;;;;2.90;2.70;;;;;;;8.32;62.56;95339.16;4987335;28;20203;-69
2023/03/01 01:00:59;;;;;;;3.53;2.93;;;;;;;8.26;63.06;95340.50;4984220;28;20236;-69
2023/03/01 01:03:25;;;;;;;3.00;2.80;;;;;;;8.35;62.58;95344.94;4988716;28;20289;-69
2023/03/01 01:05:54;;;;;;;2.97;2.77;;;;;;;7.99;63.41;95353.28;4984850;28;20335;-68
2023/03/01 01:08:20;;;;;;;2.70;2.50;;;;;;;8.32;62.75;95345.22;4984236;28;20242;-69
2023/03/01 01:10:46;;;;;;;2.60;2.40;;;;;;;8.29;62.69;95345.47;4988524;28;20196;-68
2023/03/01 01:13:12;;;;;;;2.57;2.37;;;;;;;8.27;62.57;95342.16;4986213;28;20239;-69
2023/03/01 01:15:38;;;;;;;2.53;2.33;;;;;;;8.39;62.09;95343.78;4987251;28;20255;-68
2023/03/01 01:18:04;;;;;;;3.03;2.37;;;;;;;8.27;62.75;95344.78;4984571;28;20247;-69
2023/03/01 01:20:30;;;;;;;2.57;2.37;;;;;;;8.31;62.45;95343.56;4981994;28;20306;-68
2023/03/01 01:22:55;;;;;;;2.27;2.17;;;;;;;7.93;63.13;95344.97;4985303;28;20211;-68
2023/03/01 01:25:21;;;;;;;2.60;2.10;;;;;;;8.17;62.86;95346.50;4984320;28;20235;-68
2023/03/01 01:27:46;;;;;;;1.80;1.70;;;;;;;8.26;62.38;95337.03;4984084;28;20231;-70
2023/03/01 01:30:12;;;;;;;1.90;1.80;;;;;;;8.22;62.31;95341.69;4985884;28;20290;-69
2023/03/01 01:32:38;;;;;;;2.10;2.00;;;;;;;8.21;62.80;95332.19;4983384;28;20266;-69
2023/03/01 01:35:04;;;;;;;2.13;1.67;;;;;;;8.14;62.29;95342.34;4985253;28;20223;-69
2023/03/01 01:37:33;;;;;;;1.80;1.70;;;;;;;8.15;62.28;95353.66;4980979;28;20187;-62
2023/03/01 01:39:59;;;;;;;1.73;1.63;;;;;;;8.27;62.01;95352.63;4981138;28;20254;-62
2023/03/01 01:42:25;;;;;;;1.57;1.47;;;;;;;8.31;61.65;95354.03;4987665;28;20219;-62
2023/03/01 01:45:32;;;;;;;1.97;1.77;;;;;;;8.16;62.72;95360.56;4989136;28;20219;-62
2023/03/01 01:48:04;;;;;;;1.80;1.70;;;;;;;8.22;61.99;95357.41;4981452;28;20302;-63
2023/03/01 01:50:37;;;;;;;1.53;1.43;;;;;;;8.16;61.82;95358.78;4984528;28;20231;-62
2023/03/01 01:53:17;;;;;;;1.43;1.33;;;;;;;8.02;62.22;95355.63;4987425;28;20192;-62
2023/03/01 01:55:51;;;;;;;1.70;1.60;;;;;;;8.00;62.48;95352.34;4981838;28;20230;-62
2023/03/01 01:58:20;;;;;;;1.97;1.87;;;;;;;7.81;62.94;95345.19;4986222;28;20229;-69
2023/03/01 02:00:47;;;;;;;1.60;1.50;;;;;;;8.00;62.50;95349.72;4987174;28;20239;-69
2023/03/01 02:03:17;;;;;;;1.60;1.50;;;;;;;8.17;61.71;95344.69;4984607;28;20238;-69
2023/03/01 02:06:37;;;;;;;1.50;1.40;;;;;;;8.22;61.23;95336.47;4986444;28;20636;-69
2023/03/01 02:09:07;;;;;;;1.70;1.60;;;;;;;8.22;60.97;95331.22;4966581;28;20220;-68
2023/03/01 02:11:33;;;;;;;1.60;1.50;;;;;;;8.18;60.97;95333.28;4966588;28;20224;-69
2023/03/01 02:14:00;;;;;;;1.70;1.60;;;;;;;8.13;60.96;95324.97;4983042;28;20202;-69
2023/03/01 02:16:26;;;;;;;1.60;1.50;;;;;;;8.22;60.65;95326.00;4966222;28;20271;-62
2023/03/01 02:18:53;;;;;;;1.57;1.47;;;;;;;8.15;60.93;95332.69;4969162;28;20359;-62
2023/03/01 02:21:21;;;;;;;2.47;1.60;;;;;;;8.17;60.48;95330.78;4987056;28;20219;-62
2023/03/01 02:23:46;;;;;;;1.60;1.50;;;;;;;8.20;60.74;95330.53;4966119;28;20224;-61
2023/03/01 02:26:33;;;;;;;1.77;1.67;;;;;;;8.15;60.32;95332.69;4969395;28;20283;-62
2023/03/01 02:28:59;;;;;;;1.70;1.60;;;;;;;8.18;60.24;95332.47;4977942;28;20235;-66
2023/03/01 02:31:43;;;;;;;1.60;1.50;;;;;;;8.17;60.62;95338.63;4984572;28;20209;-66
2023/03/01 02:34:21;;;;;;;1.63;1.53;;;;;;;8.16;60.60;95337.81;4969228;28;20258;-66
2023/03/01 02:36:50;;;;;;;1.50;1.40;;;;;;;8.22;60.44;95343.50;4967844;28;20231;-66
2023/03/01 02:39:23;;;;;;;1.97;1.87;;;;;;;8.20;60.51;95346.22;4956030;28;20415;-66
2023/03/01 02:41:53;;;;;;;1.63;1.53;;;;;;;8.23;60.83;95345.97;4967703;28;20250;-67
2023/03/01 02:44:21;;;;;;;1.87;1.77;;;;;;;8.23;60.41;95351.22;4979622;28;20246;-66
2023/03/01 02:46:52;;;;;;;2.10;2.00;;;;;;;8.20;60.55;95341.00;4987160;28;20230;-67
2023/03/01 02:49:27;;;;;;;1.90;1.80;;;;;;;8.16;60.97;95339.63;4980208;28;20219;-67
2023/03/01 02:52:30;;;;;;;2.00;1.90;;;;;;;8.23;60.66;95334.66;4981863;28;20280;-66
2023/03/01 02:55:04;;;;;;;2.07;1.97;;;;;;;8.31;60.68;95334.84;4980726;28;20224;-67
2023/03/01 02:57:32;;;;;;;2.10;2.00;;;;;;;8.32;60.83;95331.28;4982646;28;20219;-67
2023/03/01 03:00:07;;;;;;;2.37;2.17;;;;;;;8.18;60.99;95338.53;4982965;28;20265;-67
2023/03/01 03:02:36;;;;;;;2.30;2.20;;;;;;;8.28;60.90;95338.56;4984068;28;20571;-66
2023/03/01 03:05:08;;;;;;;2.70;2.50;;;;;;;8.22;61.26;95338.25;4985389;28;20283;-66
2023/03/01 03:07:36;;;;;;;2.70;2.50;;;;;;;8.24;61.17;95338.97;4980461;28;20184;-67
2023/03/01 03:10:03;;;;;;;2.70;2.50;;;;;;;8.17;61.23;95336.03;4985184;28;20220;-66
2023/03/01 03:12:29;;;;;;;2.70;2.50;;;;;;;8.09;61.58;95338.44;4984061;28;20227;-67
2023/03/01 03:14:54;;;;;;;3.03;2.83;;;;;;;7.92;61.60;95338.06;4995251;28;20231;-66
2023/03/01 03:17:19;;;;;;;3.20;3.00;;;;;;;7.94;62.25;95337.97;4983433;28;20222;-66
2023/03/01 03:19:45;;;;;;;3.50;3.20;;;;;;;7.90;62.15;95339.16;4982459;28;20212;-70
2023/03/01 03:22:12;;;;;;;3.23;2.97;;;;;;;7.82;62.33;95339.78;4978670;28;20223;-70
2023/03/01 03:24:38;;;;;;;3.30;2.80;;;;;;;7.84;61.98;95345.75;4985994;28;20244;-70
2023/03/01 03:27:04;;;;;;;3.20;3.00;;;;;;;7.92;62.30;95343.31;4980048;28;20278;-71
2023/03/01 03:29:30;;;;;;;3.00;2.80;;;;;;;7.96;62.11;95343.88;4981796;28;20231;-67
2023/03/01 03:31:55;;;;;;;3.10;2.90;;;;;;;7.90;61.75;95342.59;4985357;28;20207;-69
2023/03/01 03:34:21;;;;;;;3.10;2.90;;;;;;;8.01;61.77;95341.72;4984698;28;20224;-68
2023/03/01 03:36:46;;;;;;;3.20;3.00;;;;;;;8.07;62.07;95348.22;4983327;28;20227;-68
2023/03/01 03:39:12;;;;;;;3.10;2.90;;;;;;;7.94;62.03;95341.41;4981514;28;20243;-67
2023/03/01 03:41:37;;;;;;;3.07;2.87;;;;;;;8.00;61.79;95347.09;4984001;28;20220;-68
2023/03/01 03:44:03;;;;;;;2.80;2.60;;;;;;;7.97;61.64;95347.34;4986130;28;20196;-67
2023/03/01 03:46:28;;;;;;;2.77;2.40;;;;;;;7.90;61.45;95349.63;4988770;28;20202;-67
2023/03/01 03:48:53;;;;;;;2.50;2.40;;;;;;;7.89;61.72;95348.81;4985041;28;20216;-64
2023/03/01 03:51:19;;;;;;;2.97;2.43;;;;;;;7.83;62.17;95344.09;4990969;28;20231;-64
2023/03/01 03:53:45;;;;;;;2.60;2.40;;;;;;;7.90;61.69;95355.69;4984758;28;20296;-64
2023/03/01 03:56:12;;;;;;;2.73;2.53;;;;;;;7.70;62.49;95359.16;4985304;28;20253;-65
2023/03/01 03:58:37;;;;;;;2.63;2.00;;;;;;;7.70;62.19;95354.75;4987534;28;20219;-64
2023/03/01 04:01:03;;;;;;;2.67;2.47;;;;;;;7.87;61.83;95352.50;4988450;28;20357;-67
2023/03/01 04:03:30;;;;;;;2.33;2.13;;;;;;;7.76;62.04;95353.41;4987076;28;20228;-67
2023/03/01 04:05:58;;;;;;;2.77;2.30;;;;;;;7.79;62.10;95352.31;4987779;28;20219;-67
2023/03/01 04:08:24;;;;;;;2.20;2.00;;;;;;;7.67;62.69;95362.00;4980054;28;20238;-67
2023/03/01 04:10:52;;;;;;;1.83;1.73;;;;;;;7.79;62.43;95355.75;4987007;28;20195;-64
2023/03/01 04:13:21;;;;;;;2.33;2.20;;;;;;;7.82;62.39;95360.75;4983068;28;20220;-63
2023/03/01 04:15:50;;;;;;;2.50;2.30;;;;;;;7.67;62.66;95362.84;4983318;28;20231;-62
2023/03/01 04:18:17;;;;;;;2.30;2.20;;;;;;;7.73;62.39;95364.13;4984326;28;20223;-63
2023/03/01 04:20:44;;;;;;;2.80;2.60;;;;;;;7.80;62.32;95360.03;4990439;28;20243;-70
2023/03/01 04:23:20;;;;;;;2.70;2.33;;;;;;;7.79;62.67;95357.56;4987248;28;20183;-70
2023/03/01 04:25:55;;;;;;;2.87;2.67;;;;;;;7.89;61.61;95361.91;4988145;28;20223;-65
2023/03/01 04:28:29;;;;;;;3.17;2.60;;;;;;;7.83;62.07;95356.31;4983487;28;20306;-70
2023/03/01 04:30:57;;;;;;;3.53;2.60;;;;;;;7.78;62.04;95359.34;4986947;28;20281;-68
2023/03/01 04:33:24;;;;;;;2.50;2.30;;;;;;;7.80;61.83;95353.97;4990847;28;20227;-67
2023/03/01 04:35:49;;;;;;;2.87;2.50;;;;;;;7.80;62.04;95359.19;4984340;28;20258;-63
2023/03/01 04:38:19;;;;;;;4.00;2.70;;;;;;;7.74;62.52;95356.13;4986941;28;20298;-63
2023/03/01 04:40:45;;;;;;;3.17;2.90;;;;;;;7.73;62.58;95354.47;4986799;28;20273;-65
2023/03/01 04:43:15;;;;;;;3.83;3.53;;;;;;;7.85;62.02;95355.25;4981018;28;20269;-65
2023/03/01 04:45:40;;;;;;;2.80;2.60;;;;;;;7.95;61.77;95357.94;4983246;28;20226;-65
2023/03/01 04:48:06;;;;;;;3.10;2.80;;;;;;;7.95;61.30;95347.47;4984098;28;20219;-64
2023/03/01 04:50:31;;;;;;;2.67;2.47;;;;;;;7.77;62.36;95352.44;4987430;28;20250;-67
2023/03/01 04:52:58;;;;;;;2.97;2.70;;;;;;;7.77;61.91;95352.44;4990706;28;20203;-68
2023/03/01 04:55:25;;;;;;;2.70;2.50;;;;;;;7.92;61.78;95347.72;4987306;28;20204;-67
2023/03/01 04:57:51;;;;;;;2.70;2.50;;;;;;;7.91;61.81;95339.06;4986925;28;20231;-68
2023/03/01 05:00:22;;;;;;;2.57;2.37;;;;;;;7.90;61.56;95352.25;4983526;28;20215;-68
2023/03/01 05:03:00;;;;;;;2.87;2.60;;;;;;;7.79;61.91;95353.13;4988652;28;20270;-68
2023/03/01 05:05:28;;;;;;;2.73;2.53;;;;;;;7.77;61.84;95347.19;5002425;28;20230;-68
2023/03/01 05:07:56;;;;;;;2.63;2.10;;;;;;;7.78;62.00;95356.72;4988940;28;20253;-68
2023/03/01 05:10:22;;;;;;;2.50;2.30;;;;;;;7.81;62.10;95348.63;4972185;28;20220;-63
2023/03/01 05:12:48;;;;;;;2.53;2.33;;;;;;;7.74;61.79;95347.44;4966090;28;20233;-63
2023/03/01 05:15:14;;;;;;;2.67;2.30;;;;;;;7.82;62.21;95349.44;4967099;28;20352;-69
2023/03/01 05:17:39;;;;;;;3.33;2.63;;;;;;;7.92;61.82;95353.78;4969196;28;20253;-68
2023/03/01 05:20:08;;;;;;;2.70;2.50;;;;;;;7.87;61.61;95353.34;4966795;28;20226;-69
2023/03/01 05:22:35;;;;;;;2.70;2.50;;;;;;;7.77;62.14;95354.22;4964014;28;20188;-69
2023/03/01 05:25:01;;;;;;;2.97;2.67;;;;;;;7.71;62.76;95358.19;4967173;28;20220;-69
2023/03/01 05:27:27;;;;;;;2.50;2.30;;;;;;;7.87;62.41;95358.56;4964665;28;20291;-68
2023/03/01 05:29:52;;;;;;;2.60;2.40;;;;;;;7.82;62.55;95346.81;4964948;28;20654;-69
2023/03/01 05:32:17;;;;;;;2.60;2.40;;;;;;;7.85;62.14;95357.88;4963489;28;20284;-67
2023/03/01 05:34:44;;;;;;;3.40;2.30;;;;;;;7.87;61.91;95350.72;4965059;28;20197;-67
2023/03/01 05:37:09;;;;;;;2.70;2.50;;;;;;;7.77;62.31;95354.22;4968676;28;20241;-68
2023/03/01 05:39:35;;;;;;;2.37;2.20;;;;;;;7.75;62.43;95349.09;4966204;28;20265;-63
2023/03/01 05:42:01;;;;;;;2.37;2.13;;;;;;;7.77;62.48;95362.06;4966913;28;20236;-68
2023/03/01 05:44:28;;;;;;;3.23;2.20;;;;;;;7.72;62.58;95363.31;4969912;28;20216;-67
2023/03/01 05:46:55;;;;;;;2.77;1.90;;;;;;;7.69;62.52;95358.28;4949309;28;20196;-67
2023/03/01 05:49:23;;;;;;;2.57;1.97;;;;;;;7.72;61.99;95354.59;4965954;28;20233;-68
2023/03/01 05:51:52;;;;;;;3.67;2.10;;;;;;;7.83;61.71;95356.31;4959164;28;20224;-67
2023/03/01 05:54:19;;;;;;;2.33;2.13;;;;;;;7.83;61.94;95364.19;4959980;28;20217;-68
2023/03/01 05:56:45;;;;;;;3.07;2.37;;;;;;;7.90;61.48;95366.16;4968355;28;20230;-66
2023/03/01 05:59:11;;;;;;;2.27;2.10;;;;;;;7.79;61.84;95368.03;4967661;28;20211;-66
2023/03/01 06:01:37;;;;;;;2.20;2.00;;;;;;;7.67;62.53;95378.56;4964010;28;20255;-68
2023/03/01 06:04:04;;;;;;;2.80;2.33;;;;;;;7.72;61.99;95383.38;4968235;28;20248;-64
2023/03/01 06:06:29;;;;;;;2.90;2.30;;;;;;;7.82;61.86;95378.25;4985531;28;20242;-63
2023/03/01 06:08:55;;;;;;;2.37;2.17;;;;;;;7.81;61.80;95377.41;4974707;28;20252;-63
2023/03/01 06:11:21;;;;;;;2.10;1.90;;;;;;;7.86;61.47;95383.09;4966529;28;20270;-66
2023/03/01 06:13:47;;;;;;;3.47;2.30;;;;;;;7.75;61.69;95388.38;4968213;28;20192;-63
2023/03/01 06:16:13;;;;;;;2.90;2.50;;;;;;;7.28;63.50;95396.50;4967427;28;20232;-61
2023/03/01 06:18:39;;;;;;;2.47;2.27;;;;;;;7.13;64.36;95402.09;4967220;28;20247;-61
2023/03/01 06:21:06;;;;;;;3.00;2.27;;;;;;;7.10;65.21;95402.34;4960031;28;20228;-63
2023/03/01 06:23:31;;;;;;;2.67;2.40;;;;;;;7.23;64.60;95401.25;4962297;28;20220;-63
2023/03/01 06:25:57;;;;;;;3.20;2.90;;;;;;;7.63;63.56;95398.06;4965800;28;20192;-64
2023/03/01 06:28:22;;;;;;;4.50;2.90;;;;;;;7.78;63.09;95392.53;4967787;28;20204;-63
2023/03/01 06:30:50;;;;;;;4.37;2.80;;;;;;;7.80;62.49;95393.22;4964033;28;20376;-62
2023/03/01 06:33:16;;;;;;;3.60;3.13;;;;;;;7.89;62.67;95395.13;4960928;28;20252;-64
2023/03/01 06:35:41;;;;;;;4.10;2.60;;;;;;;7.82;62.53;95391.34;4948851;28;20254;-62
2023/03/01 06:38:07;;;;;;;5.03;2.90;;;;;;;7.88;62.22;95396.06;4962304;28;20274;-62
2023/03/01 06:40:35;;;;;;;3.80;2.87;;;;;;;7.83;62.62;95401.69;4965341;28;20198;-66
2023/03/01 06:43:01;;;;;;;3.97;2.70;;;;;;;7.92;62.41;95405.34;4980890;28;20227;-66
2023/03/01 06:45:26;;;;;;;3.03;2.70;;;;;;;8.05;61.99;95399.91;4982680;28;20211;-67
2023/03/01 06:47:52;;;;;;;4.67;3.10;;;;;;;7.95;62.34;95400.66;4983025;28;20215;-65
2023/03/01 06:50:18;;;;;;;4.60;3.17;;;;;;;7.99;62.17;95401.22;4980610;28;20220;-65
2023/03/01 06:55:36;;;;;;;4.47;2.40;;;;;;;8.20;61.26;95395.19;4980592;28;20234;-65
2023/03/01 06:58:03;;;;;;;3.30;2.77;;;;;;;8.21;60.81;95397.69;4996157;28;20254;-66
2023/03/01 07:00:29;;;;;;;4.03;2.43;;;;;;;8.20;61.06;95396.00;4983961;28;20302;-64
2023/03/01 07:02:57;;;;;;;4.80;2.60;;;;;;;8.12;61.11;95396.63;4976699;28;20281;-71
2023/03/01 07:05:23;;;;;;;4.40;2.27;;;;;;;8.11;60.90;95399.41;4980693;28;20236;-70
2023/03/01 07:07:48;;;;;;;3.00;2.40;;;;;;;8.15;60.64;95398.19;4981697;28;20562;-66
2023/03/01 07:10:14;;;;;;;2.77;2.10;;;;;;;8.30;60.21;95403.94;4983197;28;20227;-66
2023/03/01 07:12:41;;;;;;;5.13;2.70;;;;;;;8.35;60.24;95402.59;4981784;28;20557;-68
2023/03/01 07:15:09;;;;;;;3.50;2.63;;;;;;;8.43;60.02;95395.91;4979263;28;20228;-67
2023/03/01 07:17:34;;;;;;;2.60;2.00;;;;;;;8.45;60.15;95397.44;4982801;28;20234;-66
2023/03/01 07:20:00;;;;;;;4.37;2.17;;;;;;;8.47;59.95;95395.50;4982097;28;20211;-65
2023/03/01 07:22:25;;;;;;;3.83;2.17;;;;;;;8.46;59.63;95393.03;4982805;28;20287;-66
2023/03/01 07:24:51;;;;;;;2.40;2.20;;;;;;;8.39;60.14;95398.81;4986135;28;20246;-66
2023/03/01 07:27:16;;;;;;;3.03;2.10;;;;;;;8.56;59.60;95391.31;4984054;28;20219;-64
2023/03/01 07:29:41;;;;;;;2.27;1.80;;;;;;;8.46;59.57;95387.78;4987836;28;20219;-63
2023/03/01 07:32:11;;;;;;;3.97;1.97;;;;;;;8.36;60.05;95383.28;4984382;28;20202;-64
2023/03/01 07:34:36;;;;;;;4.90;2.10;;;;;;;8.30;60.57;95382.97;4987787;28;20191;-66
2023/03/01 07:37:02;;;;;;;7.40;1.97;;;;;;;8.30;59.89;95382.97;4981486;28;20240;-64
2023/03/01 07:39:27;;;;;;;3.77;1.90;;;;;;;8.48;59.99;95385.88;4985745;28;20239;-66
2023/03/01 07:41:52;;;;;;;2.53;1.70;;;;;;;8.41;60.19;95385.56;4984475;28;20228;-65
2023/03/01 07:44:18;;;;;;;3.07;2.20;;;;;;;8.65;59.33;95390.50;4987757;28;20230;-66
2023/03/01 07:46:44;;;;;;;4.90;2.27;;;;;;;8.68;59.05;95386.78;4984968;28;20183;-67
2023/03/01 07:49:10;;;;;;;4.27;1.87;;;;;;;8.70;58.95;95388.31;4984596;28;20318;-68
2023/03/01 07:51:35;;;;;;;3.97;2.83;;;;;;;8.66;58.99;95383.47;4981462;28;20283;-66
2023/03/01 07:54:01;;;;;;;3.10;2.50;;;;;;;8.64;58.99;95377.56;4985135;28;20636;-65
2023/03/01 07:56:26;;;;;;;5.27;2.70;;;;;;;8.59;58.75;95378.75;4980753;28;20286;-67
2023/03/01 07:58:52;;;;;;;5.57;2.27;;;;;;;8.77;58.51;95372.91;4985463;28;20326;-66
2023/03/01 08:01:19;;;;;;;7.20;2.40;;;;;;;8.92;57.95;95368.94;4983017;28;20243;-68
2023/03/01 08:03:45;;;;;;;7.37;2.97;;;;;;;8.99;57.78;95371.88;4981248;28;20223;-67
2023/03/01 08:06:12;;;;;;;4.53;2.40;;;;;;;9.03;57.97;95375.88;4984989;28;20899;-66
2023/03/01 08:08:38;;;;;;;4.80;1.90;;;;;;;9.18;57.34;95364.06;4981510;28;20370;-66
2023/03/01 08:11:06;;;;;;;4.60;1.70;;;;;;;8.90;57.71;95370.91;4982753;28;20279;-67
2023/03/01 08:13:32;;;;;;;5.90;1.70;;;;;;;9.02;57.81;95366.38;4982265;28;20190;-63
2023/03/01 08:16:07;;;;;;;2.83;1.90;;;;;;;9.15;57.09;95368.75;4978493;28;20598;-64
2023/03/01 08:18:32;;;;;;;3.80;1.90;;;;;;;9.12;57.26;95366.41;4986787;28;20281;-64
2023/03/01 08:21:06;;;;;;;2.33;2.00;;;;;;;9.03;56.76;95361.00;4986294;28;20228;-67
2023/03/01 08:23:32;;;;;;;2.93;2.40;;;;;;;8.81;57.13;95362.00;4978965;28;20227;-67
2023/03/01 08:26:26;;;;;;;2.27;2.07;;;;;;;8.96;56.83;95366.91;4985044;28;20221;-66
2023/03/01 08:28:52;;;;;;;3.53;1.80;;;;;;;9.01;56.36;95356.84;4983749;28;20191;-68
2023/03/01 08:31:17;;;;;;;4.07;2.10;;;;;;;9.18;55.99;95365.84;4966529;28;20330;-68
2023/03/01 08:33:43;;;;;;;2.53;2.27;;;;;;;8.92;56.54;95358.47;4968946;28;20224;-67
2023/03/01 08:36:08;;;;;;;3.87;2.37;;;;;;;9.08;56.52;95363.19;4956299;28;20231;-67
2023/03/01 08:38:35;;;;;;;4.90;2.63;;;;;;;9.16;55.93;95362.53;4950990;28;20227;-65
2023/03/01 08:41:01;;;;;;;2.30;2.10;;;;;;;9.31;55.15;95357.75;4967946;28;20277;-65
2023/03/01 08:43:27;;;;;;;5.17;2.43;;;;;;;9.36;54.96;95356.38;4949543;28;20215;-68
2023/03/01 08:45:52;;;;;;;12.17;3.93;;;;;;;9.38;55.44;95364.09;4948095;28;20965;-68
2023/03/01 08:48:18;;;;;;;6.43;2.93;;;;;;;9.40;54.56;95367.41;4942097;28;20303;-67
2023/03/01 08:50:43;;;;;;;2.63;1.90;;;;;;;9.12;55.23;95367.22;4947750;28;20227;-66
2023/03/01 08:53:08;;;;;;;3.37;2.37;;;;;;;9.14;55.49;95365.31;4947752;28;20288;-65
2023/03/01 08:55:34;;;;;;;3.50;2.37;;;;;;;9.41;54.33;95364.66;4952934;28;20193;-65
2023/03/01 08:57:59;;;;;;;3.47;2.40;;;;;;;9.56;54.05;95359.84;4965713;28;20227;-63
2023/03/01 09:00:25;;;;;;;2.60;2.40;;;;;;;9.67;53.80;95364.94;4966296;28;20273;-68
2023/03/01 09:02:50;;;;;;;3.00;2.70;;;;;;;9.51;53.75;95364.66;4960754;28;20224;-70
2023/03/01 09:05:16;;;;;;;3.20;2.33;;;;;;;9.65;53.67;95361.66;4956948;28;20263;-61
2023/03/01 09:07:41;;;;;;;3.80;2.40;;;;;;;9.83;52.79;95356.50;4967572;28;20235;-65
2023/03/01 09:10:07;;;;;;;4.03;2.10;;;;;;;9.76;52.70;95362.50;4945186;28;20224;-61
2023/03/01 09:12:33;;;;;;;5.53;2.90;;;;;;;9.85;52.92;95353.75;4963372;28;20212;-65
2023/03/01 09:14:58;;;;;;;2.83;2.13;;;;;;;9.78;52.64;95361.34;4964321;28;20224;-62
2023/03/01 09:17:23;;;;;;;2.50;1.70;;;;;;;9.67;53.00;95357.06;4963157;28;20227;-62
2023/03/01 09:19:49;;;;;;;2.23;1.87;;;;;;;9.81;52.77;95365.50;4964906;28;20215;-63
2023/03/01 09:22:14;;;;;;;2.57;2.00;;;;;;;9.98;52.77;95353.47;4965791;28;20288;-65
2023/03/01 09:24:40;;;;;;;3.33;1.90;;;;;;;10.04;52.14;95352.91;4963882;28;20225;-61
2023/03/01 09:27:08;;;;;;;5.90;1.90;;;;;;;10.09;51.91;95353.31;4961412;28;20298;-61
2023/03/01 09:29:35;;;;;;;3.40;1.83;;;;;;;10.04;52.63;95359.00;4966674;28;20252;-63
2023/03/01 09:32:01;;;;;;;3.83;1.93;;;;;;;10.03;52.43;95356.53;4963942;28;20250;-63
2023/03/01 09:34:26;;;;;;;1.90;1.80;;;;;;;10.01;52.39;95351.41;4965893;28;20473;-61
2023/03/01 09:36:52;;;;;;;2.33;2.13;;;;;;;9.86;53.01;95350.16;4964234;28;20252;-65
2023/03/01 09:39:18;;;;;;;2.53;1.43;;;;;;;9.76;53.35;95352.81;4960772;28;20236;-62
2023/03/01 09:41:45;;;;;;;3.37;1.13;;;;;;;9.97;52.76;95354.44;4958987;28;20260;-66
2023/03/01 09:44:20;;;;;;;2.57;1.50;;;;;;;9.98;52.68;95349.06;4957516;28;20213;-68
2023/03/01 09:46:46;;;;;;;3.27;1.30;;;;;;;9.91;52.92;95345.31;4965615;28;20269;-66
2023/03/01 09:49:21;;;;;;;2.10;1.10;;;;;;;10.11;52.39;95341.72;4959653;28;20303;-63
2023/03/01 09:52:06;;;;;;;2.23;1.43;;;;;;;10.04;52.76;95334.53;4964737;28;20236;-64
2023/03/01 09:54:32;;;;;;;3.73;1.23;;;;;;;10.23;52.75;95339.75;4969223;28;20302;-65
2023/03/01 09:57:10;;;;;;;1.43;1.20;;;;;;;10.30;52.24;95338.25;4967789;28;20224;-65
2023/03/01 10:00:12;;;;;;;4.23;1.27;;;;;;;10.34;51.79;95330.88;4981203;28;20247;-62
2023/03/01 10:02:43;;;;;;;2.43;1.40;;;;;;;10.27;52.12;95325.38;4984705;28;20310;-62
2023/03/01 10:05:34;;;;;;;1.50;1.40;;;;;;;10.20;52.61;95323.44;4985303;28;20216;-66
2023/03/01 10:08:29;;;;;;;2.60;1.60;;;;;;;10.34;52.13;95321.22;4980624;28;20302;-64
2023/03/01 10:10:55;;;;;;;1.73;1.57;;;;;;;10.08;52.56;95322.78;4987488;28;20624;-65
2023/03/01 10:13:32;;;;;;;3.43;1.40;;;;;;;10.16;52.39;95323.72;4985432;28;20242;-66
2023/03/01 10:16:05;;;;;;;2.93;1.50;;;;;;;10.23;52.20;95320.53;4986012;28;20227;-64
2023/03/01 10:18:36;;;;;;;4.88;2.05;;;;;;;10.01;53.08;95326.94;4986944;28;20322;-65
2023/03/01 10:21:12;;;;;;;1.42;1.33;;;;;;;10.30;52.15;95324.28;4983112;28;20343;-66
2023/03/01 10:23:37;;;;;;;2.10;1.80;;;;;;;10.10;52.21;95310.31;4986047;28;20222;-63
2023/03/01 10:26:26;;;;;;;6.40;1.90;;;;;;;10.42;51.99;95306.53;4984979;28;20225;-65
2023/03/01 10:29:19;;;;;;;3.20;1.70;;;;;;;10.40;51.62;95309.31;4963475;28;20270;-65
2023/03/01 10:31:50;;;;;;;2.53;1.90;;;;;;;10.44;51.77;95304.59;4964789;28;20354;-66
2023/03/01 10:34:34;;;;;;;1.73;1.63;;;;;;;10.41;51.80;95305.69;4950396;28;20371;-63
2023/03/01 10:37:21;;;;;;;4.50;1.43;;;;;;;10.56;51.32;95303.44;4954535;28;20306;-66
2023/03/01 10:40:08;;;;;;;3.77;2.60;;;;;;;10.73;51.00;95301.84;4947665;28;20235;-64
2023/03/01 10:42:35;;;;;;;3.00;1.80;;;;;;;10.66;50.59;95290.22;4967452;28;20335;-62
2023/03/01 10:45:29;;;;;;;2.30;1.50;;;;;;;10.96;50.41;95287.31;4955609;28;20233;-64
2023/03/01 10:48:13;;;;;;;4.45;2.15;;;;;;;10.72;50.51;95287.00;4942022;28;20230;-65
2023/03/01 10:50:39;;;;;;;7.15;2.28;;;;;;;10.68;50.54;95291.75;4964385;28;20230;-70
2023/03/01 10:53:35;;;;;;;3.47;2.10;;;;;;;10.77;51.00;95293.53;4974341;28;20214;-65
2023/03/01 10:56:08;;;;;;;4.23;2.13;;;;;;;10.76;50.10;95291.03;4956975;28;20210;-64
2023/03/01 10:58:35;;;;;;;2.00;1.90;;;;;;;10.70;51.31;95288.97;4975289;28;20393;-63
2023/03/01 11:01:15;;;;;;;2.10;1.83;;;;;;;11.08;50.11;95289.75;4959571;28;20298;-65
2023/03/01 11:03:40;;;;;;;2.78;2.35;;;;;;;11.51;48.85;95277.66;4955170;28;20287;-66
2023/03/01 11:06:21;;;;;;;2.27;2.07;;;;;;;11.67;48.24;95286.53;4976211;28;20307;-64
2023/03/01 11:08:49;;;;;;;2.33;2.00;;;;;;;11.60;47.72;95288.13;4967927;28;20274;-66
2023/03/01 11:11:24;;;;;;;3.77;2.23;;;;;;;11.80;48.18;95287.94;4968724;28;21427;-65
2023/03/01 11:13:56;;;;;;;2.75;2.25;;;;;;;11.82;47.77;95291.28;4969100;28;20613;-66
2023/03/01 11:16:37;;;;;;;4.40;2.73;;;;;;;11.56;48.86;95286.75;4967468;28;20232;-66
2023/03/01 11:19:08;;;;;;;7.97;2.83;;;;;;;11.54;48.34;95282.63;4969126;28;20224;-67
2023/03/01 11:21:54;;;;;;;2.40;2.20;;;;;;;11.43;49.09;95284.50;4970241;28;20286;-67
2023/03/01 11:24:26;;;;;;;2.77;2.13;;;;;;;11.25;49.26;95286.28;4968617;28;20215;-67
2023/03/01 11:26:54;;;;;;;4.90;3.30;;;;;;;11.24;49.08;95285.47;4968226;28;20228;-67
2023/03/01 11:29:43;;;;;;;2.80;2.50;;;;;;;11.18;49.36;95282.63;4970105;28;20224;-66
2023/03/01 11:32:11;;;;;;;2.80;2.60;;;;;;;11.09;49.62;95279.06;4969929;28;20207;-67
2023/03/01 11:34:57;;;;;;;3.77;2.30;;;;;;;10.85;50.21;95284.06;4969468;28;20195;-67
2023/03/01 11:37:32;;;;;;;3.20;2.20;;;;;;;10.80;50.63;95276.63;4988446;28;20215;-68
2023/03/01 11:40:12;;;;;;;4.30;2.20;;;;;;;10.95;50.75;95271.66;4984665;28;20219;-67
2023/03/01 11:42:49;;;;;;;4.57;2.53;;;;;;;11.12;50.11;95270.03;4987518;28;20960;-67
2023/03/01 11:45:14;;;;;;;3.10;2.43;;;;;;;11.08;50.29;95266.06;4987343;28;20246;-66
2023/03/01 11:48:01;;;;;;;3.70;2.70;;;;;;;10.48;51.95;95266.53;4981866;28;20262;-67
2023/03/01 11:50:33;;;;;;;2.50;2.30;;;;;;;10.52;51.88;95263.44;4986060;28;20215;-65
2023/03/01 11:53:24;;;;;;;2.60;2.40;;;;;;;10.75;50.92;95250.75;4990477;28;20203;-65